createdAt,value
2018-08-31T00:01:26.065Z,14.03
2018-08-31T00:04:28.718Z,14.40
2018-08-31T00:07:05.753Z,13.45
2018-08-31T00:09:42.841Z,14.03
2018-08-31T00:12:19.993Z,16.17
2018-08-31T00:14:51.438Z,14.25
2018-08-31T00:17:22.856Z,16.90
2018-08-31T00:19:54.248Z,17.82
2018-08-31T00:22:25.685Z,16.25
2018-08-31T00:26:02.856Z,15.53
2018-08-31T00:28:40.052Z,14.65
2018-08-31T00:31:17.201Z,13.13
2018-08-31T00:33:53.783Z,16.30
2018-08-31T00:36:30.897Z,18.05
2018-08-31T00:39:08.786Z,19.25
2018-08-31T00:41:48.011Z,17.23
2018-08-31T00:44:27.025Z,13.83
2018-08-31T00:46:58.466Z,13.85
2018-08-31T00:49:30.728Z,12.55
2018-08-31T00:52:02.140Z,15.23
2018-08-31T00:54:33.537Z,16.10
2018-08-31T00:57:04.940Z,15.60
2018-08-31T00:59:36.320Z,13.38
2018-08-31T01:02:07.732Z,13.30
2018-08-31T01:04:39.170Z,12.78
2018-08-31T01:07:10.716Z,12.18
2018-08-31T01:09:42.092Z,21.95
2018-08-31T01:12:13.501Z,13.70
2018-08-31T01:14:44.908Z,16.37
2018-08-31T01:17:16.345Z,13.35
2018-08-31T01:19:47.741Z,15.83
2018-08-31T01:22:19.173Z,14.80
2018-08-31T01:24:50.763Z,11.18
2018-08-31T01:27:22.212Z,13.80
2018-08-31T01:29:53.632Z,15.25
2018-08-31T01:32:25.036Z,12.43
2018-08-31T01:34:56.470Z,18.37
2018-08-31T01:37:27.870Z,13.30
2018-08-31T01:39:59.284Z,11.70
2018-08-31T01:42:30.712Z,14.28
2018-08-31T01:45:02.151Z,13.70
2018-08-31T01:47:33.838Z,13.00
2018-08-31T01:50:05.252Z,12.73
2018-08-31T01:52:36.654Z,11.15
2018-08-31T01:55:08.075Z,12.98
2018-08-31T01:57:39.485Z,13.45
2018-08-31T02:00:10.882Z,11.88
2018-08-31T02:02:42.288Z,11.10
2018-08-31T02:05:13.689Z,11.05
2018-08-31T02:07:45.105Z,11.57
2018-08-31T02:10:16.526Z,12.58
2018-08-31T02:12:51.116Z,11.35
2018-08-31T02:15:22.529Z,12.70
2018-08-31T02:17:53.962Z,13.38
2018-08-31T02:20:25.345Z,11.35
2018-08-31T02:22:56.849Z,12.28
2018-08-31T02:25:28.238Z,12.15
2018-08-31T02:27:59.649Z,10.88
2018-08-31T02:30:31.056Z,11.00
2018-08-31T02:33:02.478Z,10.60
2018-08-31T02:35:33.894Z,12.93
2018-08-31T02:38:05.389Z,12.25
2018-08-31T02:40:36.801Z,11.15
2018-08-31T02:43:08.251Z,11.70
2018-08-31T02:45:39.658Z,11.93
2018-08-31T02:48:11.089Z,10.25
2018-08-31T02:50:42.546Z,12.40
2018-08-31T02:53:13.989Z,11.38
2018-08-31T02:55:45.392Z,11.22
2018-08-31T02:58:16.789Z,11.60
2018-08-31T03:00:48.190Z,11.50
2018-08-31T03:03:19.601Z,12.75
2018-08-31T03:05:51.023Z,11.00
2018-08-31T03:08:22.465Z,9.98
2018-08-31T03:10:53.879Z,12.45
2018-08-31T03:13:25.353Z,12.25
2018-08-31T03:15:56.797Z,10.75
2018-08-31T03:18:28.223Z,12.30
2018-08-31T03:20:59.717Z,11.57
2018-08-31T03:23:31.124Z,10.98
2018-08-31T03:26:02.537Z,13.50
2018-08-31T03:28:33.953Z,11.00
2018-08-31T03:31:05.376Z,10.95
2018-08-31T03:33:36.806Z,10.70
2018-08-31T03:36:08.208Z,11.75
2018-08-31T03:38:39.655Z,10.50
2018-08-31T03:41:11.094Z,10.20
2018-08-31T03:43:42.497Z,9.10
2018-08-31T03:46:13.920Z,10.82
2018-08-31T03:48:45.332Z,10.63
2018-08-31T03:51:16.993Z,13.93
2018-08-31T03:53:48.422Z,9.63
2018-08-31T03:56:19.860Z,11.08
2018-08-31T03:58:51.244Z,10.15
2018-08-31T04:01:22.648Z,8.38
2018-08-31T04:03:54.045Z,9.98
2018-08-31T04:06:25.653Z,11.18
2018-08-31T04:08:57.048Z,9.55
2018-08-31T04:11:28.478Z,9.35
2018-08-31T04:13:59.929Z,11.48
2018-08-31T04:16:31.354Z,10.65
2018-08-31T04:19:07.366Z,10.32
2018-08-31T04:21:38.761Z,11.28
2018-08-31T04:24:10.441Z,10.05
2018-08-31T04:26:41.940Z,10.13
2018-08-31T04:29:13.332Z,10.80
2018-08-31T04:31:44.740Z,11.00
2018-08-31T04:34:16.286Z,10.75
2018-08-31T04:36:47.662Z,10.85
2018-08-31T04:39:19.056Z,9.95
2018-08-31T04:41:50.449Z,8.63
2018-08-31T04:44:21.901Z,9.23
2018-08-31T04:46:53.371Z,10.00
2018-08-31T04:49:24.805Z,9.10
2018-08-31T04:51:56.229Z,10.65
2018-08-31T04:54:27.629Z,8.93
2018-08-31T04:56:59.033Z,10.35
2018-08-31T04:59:30.436Z,10.03
2018-08-31T05:02:02.030Z,10.63
2018-08-31T05:04:33.433Z,10.72
2018-08-31T05:07:04.816Z,10.13
2018-08-31T05:09:36.230Z,9.33
2018-08-31T05:12:07.662Z,8.83
2018-08-31T05:14:39.100Z,8.98
2018-08-31T05:17:10.509Z,11.60
2018-08-31T05:19:42.061Z,9.18
2018-08-31T05:22:13.521Z,9.63
2018-08-31T05:24:44.944Z,9.68
2018-08-31T05:27:16.370Z,9.15
2018-08-31T05:29:47.802Z,11.18
2018-08-31T05:32:19.204Z,10.18
2018-08-31T05:34:50.792Z,9.20
2018-08-31T05:37:22.061Z,9.33
2018-08-31T05:39:53.526Z,9.93
2018-08-31T05:42:24.904Z,9.43
2018-08-31T05:44:56.310Z,9.60
2018-08-31T05:47:27.721Z,10.10
2018-08-31T05:49:59.125Z,10.85
2018-08-31T05:52:30.532Z,9.90
2018-08-31T05:55:01.965Z,9.20
2018-08-31T05:57:33.367Z,8.43
2018-08-31T06:00:04.829Z,9.13
2018-08-31T06:02:36.252Z,9.95
2018-08-31T06:05:07.701Z,8.95
2018-08-31T06:07:39.112Z,9.10
2018-08-31T06:10:10.526Z,9.85
2018-08-31T06:12:41.920Z,9.03
2018-08-31T06:15:13.362Z,11.60
2018-08-31T06:17:44.789Z,9.65
2018-08-31T06:20:16.218Z,8.68
2018-08-31T06:22:47.612Z,8.75
2018-08-31T06:25:19.042Z,8.90
2018-08-31T06:27:50.776Z,8.98
2018-08-31T06:30:22.206Z,9.98
2018-08-31T06:32:53.619Z,11.88
2018-08-31T06:35:25.023Z,9.15
2018-08-31T06:37:56.401Z,8.15
2018-08-31T06:40:27.828Z,8.48
2018-08-31T06:42:59.228Z,7.83
2018-08-31T06:45:30.776Z,8.60
2018-08-31T06:48:02.181Z,8.70
2018-08-31T06:50:33.620Z,9.00
2018-08-31T06:53:05.226Z,9.90
2018-08-31T06:55:36.661Z,9.35
2018-08-31T06:58:08.081Z,9.78
2018-08-31T07:00:39.522Z,10.05
2018-08-31T07:03:10.934Z,9.00
2018-08-31T07:05:42.386Z,8.28
2018-08-31T07:08:13.778Z,9.28
2018-08-31T07:10:45.193Z,8.20
2018-08-31T07:13:16.589Z,7.85
2018-08-31T07:15:48.026Z,7.83
2018-08-31T07:18:19.438Z,8.18
2018-08-31T07:20:50.897Z,8.88
2018-08-31T07:23:22.426Z,8.30
2018-08-31T07:25:53.827Z,7.97
2018-08-31T07:28:25.245Z,8.30
2018-08-31T07:30:56.676Z,7.97
2018-08-31T07:33:28.096Z,7.78
2018-08-31T07:35:59.546Z,8.75
2018-08-31T07:38:30.944Z,9.40
2018-08-31T07:41:02.347Z,11.00
2018-08-31T07:43:33.754Z,9.10
2018-08-31T07:46:05.176Z,8.80
2018-08-31T07:48:36.557Z,7.67
2018-08-31T07:51:07.990Z,8.90
2018-08-31T07:53:39.454Z,8.03
2018-08-31T07:56:10.869Z,10.20
2018-08-31T07:58:42.312Z,9.58
2018-08-31T08:01:13.742Z,8.80
2018-08-31T08:03:45.161Z,8.83
2018-08-31T08:06:16.568Z,11.90
2018-08-31T08:08:47.956Z,8.08
2018-08-31T08:11:19.345Z,7.55
2018-08-31T08:13:50.749Z,7.92
2018-08-31T08:16:22.144Z,8.20
2018-08-31T08:18:53.577Z,9.35
2018-08-31T08:21:25.018Z,7.75
2018-08-31T08:23:56.408Z,9.83
2018-08-31T08:26:27.862Z,8.25
2018-08-31T08:28:59.310Z,8.55
2018-08-31T08:31:30.746Z,9.35
2018-08-31T08:34:02.146Z,10.28
2018-08-31T08:36:33.644Z,8.18
2018-08-31T08:39:05.727Z,9.63
2018-08-31T08:41:37.133Z,9.05
2018-08-31T08:44:09.380Z,10.78
2018-08-31T08:46:40.932Z,8.15
2018-08-31T08:49:12.363Z,10.72
2018-08-31T08:51:43.782Z,8.75
2018-08-31T08:54:15.189Z,8.20
2018-08-31T08:56:46.625Z,10.72
2018-08-31T08:59:18.017Z,8.98
2018-08-31T09:01:49.473Z,8.15
2018-08-31T09:04:21.744Z,9.28
2018-08-31T09:06:53.160Z,9.95
2018-08-31T09:09:24.626Z,8.83
2018-08-31T09:11:56.079Z,9.58
2018-08-31T09:14:27.467Z,9.63
2018-08-31T09:16:58.929Z,9.83
2018-08-31T09:19:30.374Z,9.93
2018-08-31T09:22:01.806Z,9.88
2018-08-31T09:24:33.256Z,8.93
2018-08-31T09:27:04.650Z,11.68
2018-08-31T09:29:36.040Z,9.53
2018-08-31T09:32:13.209Z,11.12
2018-08-31T09:34:51.596Z,9.70
2018-08-31T09:37:23.023Z,10.53
2018-08-31T09:39:54.453Z,14.87
2018-08-31T09:42:25.848Z,14.45
2018-08-31T09:44:57.289Z,15.43
2018-08-31T09:47:28.702Z,19.90
2018-08-31T09:50:00.163Z,20.20
2018-08-31T09:52:31.583Z,20.65
2018-08-31T09:55:03.061Z,20.75
2018-08-31T09:57:34.491Z,19.20
2018-08-31T10:00:05.925Z,19.50
2018-08-31T10:02:38.861Z,15.65
2018-08-31T10:05:10.289Z,19.48
2018-08-31T10:07:41.711Z,14.73
2018-08-31T10:10:13.137Z,14.20
2018-08-31T10:12:44.557Z,13.98
2018-08-31T10:15:16.570Z,17.42
2018-08-31T10:17:48.388Z,14.65
2018-08-31T10:20:19.812Z,18.05
2018-08-31T10:22:51.241Z,15.93
2018-08-31T10:25:22.647Z,15.32
2018-08-31T10:27:54.081Z,13.62
2018-08-31T10:30:25.524Z,13.28
2018-08-31T10:32:57.013Z,15.38
2018-08-31T10:35:28.415Z,14.95
2018-08-31T10:37:59.833Z,14.30
2018-08-31T10:40:31.252Z,14.33
2018-08-31T10:43:02.664Z,15.40
2018-08-31T10:45:34.107Z,14.80
2018-08-31T10:50:45.693Z,13.72
2018-08-31T10:53:17.141Z,14.68
2018-08-31T10:55:48.552Z,14.50
2018-08-31T10:58:19.945Z,12.03
2018-08-31T11:00:51.381Z,13.13
2018-08-31T11:03:22.800Z,12.50
2018-08-31T11:05:54.220Z,14.60
2018-08-31T11:08:25.630Z,14.07
2018-08-31T11:10:57.029Z,11.97
2018-08-31T11:13:28.488Z,13.35
2018-08-31T11:15:59.898Z,13.08
2018-08-31T11:18:31.705Z,12.58
2018-08-31T11:21:03.178Z,14.78
2018-08-31T11:23:34.803Z,15.10
2018-08-31T11:26:06.217Z,12.98
2018-08-31T11:28:37.643Z,13.90
2018-08-31T11:31:09.172Z,14.07
2018-08-31T11:33:40.570Z,12.10
2018-08-31T11:36:11.984Z,12.30
2018-08-31T11:38:43.381Z,13.20
2018-08-31T11:41:14.827Z,14.35
2018-08-31T11:43:46.233Z,12.00
2018-08-31T11:46:17.644Z,13.55
2018-08-31T11:48:49.063Z,16.32
2018-08-31T11:51:20.527Z,16.70
2018-08-31T11:53:51.942Z,13.50
2018-08-31T11:56:23.590Z,15.43
2018-08-31T11:58:55.005Z,14.60
2018-08-31T12:01:26.450Z,13.88
2018-08-31T12:03:57.838Z,14.03
2018-08-31T12:12:11.789Z,22.30
2018-08-31T12:14:43.180Z,18.73
2018-08-31T12:17:14.678Z,16.60
2018-08-31T12:19:46.161Z,19.57
2018-08-31T12:22:17.581Z,15.93
2018-08-31T12:24:48.985Z,19.93
2018-08-31T12:27:20.408Z,19.20
2018-08-31T12:29:51.812Z,14.10
2018-08-31T12:32:23.227Z,20.30
2018-08-31T12:34:54.668Z,19.30
2018-08-31T12:37:26.069Z,14.20
2018-08-31T12:39:57.467Z,19.33
2018-08-31T12:42:28.866Z,14.03
2018-08-31T12:45:00.258Z,13.37
2018-08-31T12:47:31.668Z,9.30
2018-08-31T12:50:03.089Z,7.30
2018-08-31T12:52:34.490Z,5.60
2018-08-31T12:55:05.949Z,5.33
2018-08-31T12:57:37.377Z,3.93
2018-08-31T13:00:09.365Z,5.10
2018-08-31T13:02:40.778Z,5.17
2018-08-31T13:05:12.214Z,3.50
2018-08-31T13:07:43.600Z,4.07
2018-08-31T13:10:15.019Z,3.17
2018-08-31T13:12:46.448Z,4.03
2018-08-31T13:15:17.914Z,4.67
2018-08-31T13:17:49.342Z,4.80
2018-08-31T13:20:20.772Z,3.90
2018-08-31T13:22:52.242Z,4.70
2018-08-31T13:25:23.729Z,5.53
2018-08-31T13:27:55.197Z,5.50
2018-08-31T13:30:26.585Z,7.07
2018-08-31T13:32:57.996Z,6.83
2018-08-31T13:35:29.376Z,7.13
2018-08-31T13:38:00.819Z,5.50
2018-08-31T13:40:32.202Z,8.87
2018-08-31T13:43:03.623Z,7.00
2018-08-31T13:45:35.013Z,7.93
2018-08-31T13:48:06.449Z,4.57
2018-08-31T13:50:37.837Z,8.33
2018-08-31T13:53:09.235Z,6.40
2018-08-31T13:55:40.608Z,8.20
2018-08-31T13:58:12.029Z,6.90
2018-08-31T14:00:43.417Z,6.20
2018-08-31T14:03:14.808Z,10.10
2018-08-31T14:05:46.200Z,9.17
2018-08-31T14:08:17.828Z,6.60
2018-08-31T14:10:49.225Z,6.43
2018-08-31T14:13:20.629Z,7.70
2018-08-31T14:15:52.148Z,9.73
2018-08-31T14:18:23.560Z,11.90
2018-08-31T14:20:54.941Z,6.63
2018-08-31T14:23:26.326Z,7.30
2018-08-31T14:25:57.717Z,9.13
2018-08-31T14:28:29.100Z,8.10
2018-08-31T14:31:00.627Z,12.43
2018-08-31T14:33:32.582Z,18.23
2018-08-31T14:36:05.051Z,13.30
2018-08-31T14:38:36.462Z,10.00
2018-08-31T14:41:07.905Z,11.00
2018-08-31T14:43:39.306Z,12.43
2018-08-31T14:46:10.711Z,10.77
2018-08-31T14:48:42.132Z,11.10
2018-08-31T14:51:13.584Z,12.10
2018-08-31T14:53:45.106Z,7.93
2018-08-31T14:56:16.509Z,4.33
2018-08-31T14:58:47.974Z,5.03
2018-08-31T15:01:19.377Z,5.30
2018-08-31T15:03:50.820Z,5.70
2018-08-31T15:06:22.311Z,4.33
2018-08-31T15:08:53.725Z,4.60
2018-08-31T15:11:25.129Z,5.27
2018-08-31T15:13:56.706Z,7.40
2018-08-31T15:16:28.191Z,3.37
2018-08-31T15:18:59.600Z,4.50
2018-08-31T15:21:30.992Z,5.70
2018-08-31T15:24:02.448Z,3.67
2018-08-31T15:26:33.900Z,5.13
2018-08-31T15:29:05.305Z,2.60
2018-08-31T15:31:36.704Z,3.90
2018-08-31T15:34:08.107Z,6.83
2018-08-31T15:36:39.515Z,3.43
2018-08-31T15:39:11.093Z,2.90
2018-08-31T15:41:42.484Z,4.70
2018-08-31T15:44:13.901Z,3.70
2018-08-31T15:46:45.380Z,5.47
2018-08-31T15:49:16.854Z,3.83
2018-08-31T15:51:48.309Z,4.60
2018-08-31T15:54:19.734Z,4.10
2018-08-31T15:56:51.112Z,4.87
2018-08-31T15:59:22.540Z,2.90
2018-08-31T16:01:53.932Z,5.00
2018-08-31T16:04:25.344Z,8.00
2018-08-31T16:06:56.741Z,4.00
2018-08-31T16:09:28.137Z,3.70
2018-08-31T16:11:59.554Z,4.80
2018-08-31T16:14:31.068Z,5.97
2018-08-31T16:17:02.477Z,4.70
2018-08-31T16:19:33.868Z,4.60
2018-08-31T16:22:05.287Z,6.30
2018-08-31T16:24:36.743Z,10.80
2018-08-31T16:27:08.173Z,4.83
2018-08-31T16:29:39.606Z,8.63
2018-08-31T16:32:11.025Z,8.43
2018-08-31T16:34:42.426Z,8.60
2018-08-31T16:37:13.930Z,8.27
2018-08-31T16:39:45.374Z,6.90
2018-08-31T16:42:16.806Z,5.40
2018-08-31T16:44:48.244Z,4.37
2018-08-31T16:47:19.690Z,4.53
2018-08-31T16:49:51.081Z,4.37
2018-08-31T16:52:22.538Z,5.33
2018-08-31T16:54:53.953Z,4.90
2018-08-31T16:57:25.400Z,6.30
2018-08-31T16:59:56.833Z,6.40
2018-08-31T17:02:28.352Z,5.50
2018-08-31T17:04:59.757Z,4.27
2018-08-31T17:07:31.232Z,8.30
2018-08-31T17:10:02.680Z,5.17
2018-08-31T17:12:34.118Z,3.53
2018-08-31T17:15:05.539Z,3.33
2018-08-31T17:17:36.950Z,5.20
2018-08-31T17:20:08.486Z,4.40
2018-08-31T17:22:39.890Z,8.10
2018-08-31T17:25:11.289Z,7.90
2018-08-31T17:27:48.545Z,4.73
2018-08-31T17:30:19.989Z,5.20
2018-08-31T17:32:57.053Z,3.37
2018-08-31T17:35:34.213Z,8.47
2018-08-31T17:38:05.668Z,6.73
2018-08-31T17:40:37.028Z,3.47
2018-08-31T17:43:08.445Z,3.70
2018-08-31T17:45:39.858Z,3.90
2018-08-31T17:48:11.262Z,5.00
2018-08-31T17:50:42.692Z,7.70
2018-08-31T17:53:14.069Z,5.00
2018-08-31T17:55:45.455Z,5.03
2018-08-31T17:58:16.843Z,4.30
2018-08-31T18:00:48.269Z,4.27
2018-08-31T18:03:19.653Z,8.30
2018-08-31T18:05:51.057Z,12.67
2018-08-31T18:08:22.445Z,17.17
2018-08-31T18:10:53.824Z,15.53
2018-08-31T18:13:25.219Z,16.10
2018-08-31T18:15:56.770Z,15.27
2018-08-31T18:18:28.089Z,16.07
2018-08-31T18:20:59.512Z,15.30
2018-08-31T18:23:30.912Z,15.93
2018-08-31T18:26:02.325Z,14.07
2018-08-31T18:28:33.802Z,15.20
2018-08-31T18:31:05.248Z,14.10
2018-08-31T18:33:36.641Z,14.77
2018-08-31T18:36:08.064Z,15.33
2018-08-31T18:38:39.489Z,12.03
2018-08-31T18:41:10.915Z,12.83
2018-08-31T18:43:42.432Z,11.90
